Terminal Aerodrome Forecast
Issued by NWS

Home | Current Version | Previous Version | Text Only | Print | Product List | Glossary On
Versions: 1 2 3 4 5 6 7 8 9 10 11 12 13 14
000
FTUS44 KMOB 202348
TAFBFM
TAF
KBFM 202348Z 2100/2124 VRB03KT P6SM FEW060 FEW100
     FM210300 VRB03KT P6SM FEW050 SCT250
     FM211500 08004KT P6SM VCTS SCT035CB BKN250
     FM211800 12006KT P6SM VCTS SCT035CB BKN250
      TEMPO 2118/2122 3SM TSRA BKN035CB=

USA.gov is the U.S. government's official web portal to all federal, state and local government web resources and services.